createdAt,value
2022-12-18T00:01:21.269Z,10.13
2022-12-18T00:03:26.506Z,10.43
2022-12-18T00:05:32.032Z,11.25
2022-12-18T00:07:37.679Z,10.02
2022-12-18T00:09:43.212Z,10.13
2022-12-18T00:11:50.775Z,10.05
2022-12-18T00:13:59.491Z,10.75
2022-12-18T00:16:07.452Z,10.23
2022-12-18T00:18:16.058Z,10.98
2022-12-18T00:20:27.108Z,10.30
2022-12-18T00:22:32.189Z,10.07
2022-12-18T00:24:37.212Z,9.80
2022-12-18T00:26:43.357Z,10.27
2022-12-18T00:28:53.486Z,10.63
2022-12-18T00:31:04.822Z,11.90
2022-12-18T00:33:09.910Z,12.25
2022-12-18T00:35:14.895Z,11.05
2022-12-18T00:37:20.402Z,11.07
2022-12-18T00:39:29.805Z,11.40
2022-12-18T00:41:48.294Z,11.00
2022-12-18T00:43:55.924Z,10.65
2022-12-18T00:46:00.906Z,11.68
2022-12-18T00:48:06.724Z,10.77
2022-12-18T00:50:13.733Z,10.60
2022-12-18T00:52:19.976Z,11.73
2022-12-18T00:54:25.269Z,11.55
2022-12-18T00:56:30.597Z,10.85
2022-12-18T00:58:36.352Z,10.82
2022-12-18T01:00:45.017Z,10.50
2022-12-18T01:02:50.568Z,10.40
2022-12-18T01:04:56.378Z,10.10
2022-12-18T01:07:01.452Z,9.52
2022-12-18T01:09:07.295Z,9.93
2022-12-18T01:11:22.247Z,9.82
2022-12-18T01:13:27.248Z,9.50
2022-12-18T01:15:32.267Z,9.80
2022-12-18T01:17:39.962Z,10.13
2022-12-18T01:21:49.836Z,9.73
2022-12-18T01:23:59.413Z,9.85
2022-12-18T01:26:10.205Z,10.55
2022-12-18T01:28:15.218Z,9.55
2022-12-18T01:30:20.460Z,10.70
2022-12-18T01:32:26.017Z,9.63
2022-12-18T01:34:35.387Z,10.13
2022-12-18T01:36:43.029Z,10.10
2022-12-18T01:38:49.402Z,8.95
2022-12-18T01:41:01.317Z,8.80
2022-12-18T01:43:06.560Z,8.93
2022-12-18T01:45:28.609Z,7.72
2022-12-18T01:47:40.229Z,8.77
2022-12-18T01:49:48.211Z,8.48
2022-12-18T01:51:53.538Z,9.40
2022-12-18T01:53:58.879Z,9.32
2022-12-18T01:56:04.123Z,8.95
2022-12-18T01:58:09.403Z,8.32
2022-12-18T02:00:21.047Z,8.25
2022-12-18T02:02:26.579Z,8.30
2022-12-18T02:04:32.438Z,9.68
2022-12-18T02:06:45.490Z,8.82
2022-12-18T02:09:02.687Z,9.88
2022-12-18T02:11:15.607Z,9.45
2022-12-18T02:13:31.663Z,9.38
2022-12-18T02:15:46.954Z,9.65
2022-12-18T02:17:59.185Z,9.90
2022-12-18T02:20:17.621Z,9.02
2022-12-18T02:22:40.173Z,9.00
2022-12-18T02:24:54.171Z,9.68
2022-12-18T02:27:07.048Z,9.00
2022-12-18T02:29:19.552Z,9.85
2022-12-18T02:31:31.943Z,9.60
2022-12-18T02:33:39.792Z,9.27
2022-12-18T02:35:48.236Z,10.05
2022-12-18T02:37:54.216Z,9.05
2022-12-18T02:40:02.368Z,8.98
2022-12-18T02:42:13.005Z,8.43
2022-12-18T02:44:18.823Z,9.43
2022-12-18T02:46:32.037Z,9.70
2022-12-18T02:48:39.839Z,9.77
2022-12-18T02:50:56.997Z,9.60
2022-12-18T02:53:15.170Z,10.18
2022-12-18T02:55:29.646Z,8.57
2022-12-18T02:57:49.918Z,9.38
2022-12-18T03:00:07.597Z,9.88
2022-12-18T03:02:27.517Z,9.75
2022-12-18T03:04:41.199Z,8.32
2022-12-18T03:06:52.527Z,10.13
2022-12-18T03:09:04.676Z,8.63
2022-12-18T03:11:13.878Z,8.50
2022-12-18T03:13:26.685Z,8.80
2022-12-18T03:15:37.467Z,8.82
2022-12-18T03:17:54.230Z,8.80
2022-12-18T03:20:11.334Z,8.88
2022-12-18T03:22:17.127Z,8.85
2022-12-18T03:24:30.305Z,9.60
2022-12-18T03:26:37.262Z,9.70
2022-12-18T03:28:53.762Z,9.23
2022-12-18T03:31:03.325Z,8.20
2022-12-18T03:33:14.273Z,5.93
2022-12-18T03:35:27.975Z,7.95
2022-12-18T03:37:33.720Z,8.23
2022-12-18T03:39:39.915Z,7.65
2022-12-18T03:41:49.423Z,8.77
2022-12-18T03:44:33.581Z,7.05
2022-12-18T03:46:51.041Z,7.88
2022-12-18T03:51:13.928Z,7.47
2022-12-18T03:53:30.347Z,8.50
2022-12-18T03:55:38.472Z,6.95
2022-12-18T03:57:47.094Z,7.03
2022-12-18T04:00:00.964Z,7.38
2022-12-18T04:02:21.015Z,8.32
2022-12-18T04:04:28.405Z,7.70
2022-12-18T04:08:41.016Z,6.47
2022-12-18T04:10:49.347Z,7.50
2022-12-18T04:12:54.384Z,6.85
2022-12-18T04:15:02.476Z,7.70
2022-12-18T04:17:08.447Z,7.40
2022-12-18T04:19:13.547Z,6.35
2022-12-18T04:21:21.103Z,7.40
2022-12-18T04:23:28.216Z,7.78
2022-12-18T04:25:36.326Z,7.10
2022-12-18T04:27:46.104Z,7.63
2022-12-18T04:29:52.869Z,7.23
2022-12-18T04:32:00.525Z,6.82
2022-12-18T04:34:08.573Z,7.07
2022-12-18T04:36:19.664Z,7.57
2022-12-18T04:38:26.191Z,7.50
2022-12-18T04:40:41.145Z,8.50
2022-12-18T04:42:53.840Z,7.80
2022-12-18T04:44:59.564Z,8.27
2022-12-18T04:47:08.493Z,8.30
2022-12-18T04:49:14.119Z,8.98
2022-12-18T04:51:24.722Z,8.50
2022-12-18T04:53:32.364Z,8.50
2022-12-18T04:55:37.754Z,10.65
2022-12-18T04:57:43.062Z,9.80
2022-12-18T04:59:48.423Z,9.52
2022-12-18T05:01:53.488Z,9.25
2022-12-18T05:04:01.681Z,8.70
2022-12-18T05:08:12.999Z,8.45
2022-12-18T05:10:18.039Z,9.10
2022-12-18T05:12:27.986Z,9.27
2022-12-18T05:14:33.407Z,9.55
2022-12-18T05:16:38.394Z,9.60
2022-12-18T05:18:44.705Z,8.93
2022-12-18T05:20:53.624Z,10.85
2022-12-18T05:22:59.591Z,9.00
2022-12-18T05:25:05.484Z,7.78
2022-12-18T05:27:10.890Z,7.55
2022-12-18T05:29:15.864Z,8.20
2022-12-18T05:31:21.104Z,8.40
2022-12-18T05:33:28.289Z,8.60
2022-12-18T05:35:33.583Z,7.20
2022-12-18T05:37:43.441Z,7.57
2022-12-18T05:39:48.548Z,8.07
2022-12-18T05:41:53.630Z,5.78
2022-12-18T05:43:58.779Z,6.07
2022-12-18T05:46:09.019Z,6.60
2022-12-18T05:48:14.991Z,7.28
2022-12-18T05:50:20.826Z,7.88
2022-12-18T05:52:26.218Z,6.50
2022-12-18T05:54:34.614Z,6.70
2022-12-18T05:56:42.947Z,6.88
2022-12-18T05:58:51.132Z,7.60
2022-12-18T06:00:56.442Z,8.18
2022-12-18T06:03:02.108Z,8.82
2022-12-18T06:05:08.415Z,8.50
2022-12-18T06:07:14.611Z,8.52
2022-12-18T06:09:20.222Z,7.95
2022-12-18T06:11:30.087Z,9.00
2022-12-18T06:13:35.497Z,8.95
2022-12-18T06:15:41.521Z,8.88
2022-12-18T06:17:46.467Z,9.02
2022-12-18T06:19:51.913Z,9.63
2022-12-18T06:21:58.787Z,8.80
2022-12-18T06:24:04.476Z,8.18
2022-12-18T06:26:13.331Z,8.65
2022-12-18T06:28:20.896Z,8.65
2022-12-18T06:30:26.131Z,8.45
2022-12-18T06:32:31.487Z,5.45
2022-12-18T06:34:36.542Z,6.00
2022-12-18T06:36:41.847Z,5.60
2022-12-18T06:38:48.329Z,5.13
2022-12-18T06:40:53.211Z,6.55
2022-12-18T06:42:58.687Z,7.20
2022-12-18T06:45:07.708Z,7.25
2022-12-18T06:47:13.158Z,6.50
2022-12-18T06:49:18.347Z,8.90
2022-12-18T06:51:25.096Z,7.40
2022-12-18T06:53:30.593Z,7.63
2022-12-18T06:55:36.148Z,7.20
2022-12-18T06:57:41.846Z,7.90
2022-12-18T06:59:46.783Z,7.90
2022-12-18T07:01:54.795Z,7.47
2022-12-18T07:04:01.699Z,8.52
2022-12-18T07:06:07.825Z,8.27
2022-12-18T07:08:12.743Z,7.78
2022-12-18T07:10:17.724Z,7.97
2022-12-18T07:12:22.832Z,7.93
2022-12-18T07:14:28.144Z,9.20
2022-12-18T07:16:33.582Z,8.25
2022-12-18T07:18:41.192Z,8.52
2022-12-18T07:20:46.249Z,8.57
2022-12-18T07:22:56.227Z,8.18
2022-12-18T07:25:01.441Z,8.20
2022-12-18T07:27:06.608Z,8.48
2022-12-18T07:29:13.818Z,8.13
2022-12-18T07:31:23.175Z,8.80
2022-12-18T07:33:28.507Z,8.32
2022-12-18T07:35:37.178Z,9.30
2022-12-18T07:39:48.348Z,9.68
2022-12-18T07:42:07.300Z,13.23
2022-12-18T07:44:14.123Z,15.55
2022-12-18T07:46:20.399Z,15.38
2022-12-18T07:48:25.795Z,16.67
2022-12-18T07:50:30.744Z,17.38
2022-12-18T07:52:38.343Z,12.30
2022-12-18T07:56:48.508Z,12.35
2022-12-18T07:58:54.226Z,13.80
2022-12-18T08:01:07.994Z,18.92
2022-12-18T08:03:13.286Z,17.50
2022-12-18T08:05:18.641Z,17.05
2022-12-18T08:07:23.620Z,14.85
2022-12-18T08:09:31.791Z,13.73
2022-12-18T08:11:37.045Z,12.25
2022-12-18T08:13:42.459Z,12.13
2022-12-18T08:15:47.622Z,11.85
2022-12-18T08:17:52.610Z,11.85
2022-12-18T08:19:57.555Z,12.65
2022-12-18T08:22:03.064Z,12.93
2022-12-18T08:24:09.448Z,12.95
2022-12-18T08:26:17.886Z,12.60
2022-12-18T08:28:24.011Z,13.93
2022-12-18T08:30:28.966Z,12.10
2022-12-18T08:32:34.404Z,12.02
2022-12-18T08:34:40.563Z,14.55
2022-12-18T08:36:45.552Z,15.85
2022-12-18T08:38:51.212Z,15.45
2022-12-18T08:41:03.109Z,14.98
2022-12-18T08:43:25.454Z,15.02
2022-12-18T08:45:31.479Z,15.23
2022-12-18T08:47:36.421Z,15.07
2022-12-18T08:49:41.697Z,13.73
2022-12-18T08:51:47.138Z,14.52
2022-12-18T08:53:52.387Z,15.48
2022-12-18T08:55:57.705Z,15.27
2022-12-18T08:58:02.615Z,15.93
2022-12-18T09:00:15.474Z,16.23
2022-12-18T09:02:20.945Z,15.45
2022-12-18T09:04:26.227Z,16.02
2022-12-18T09:06:31.233Z,15.23
2022-12-18T09:08:36.212Z,15.45
2022-12-18T09:10:46.506Z,14.55
2022-12-18T09:12:51.604Z,14.55
2022-12-18T09:14:57.311Z,14.23
2022-12-18T09:17:05.237Z,11.27
2022-12-18T09:19:10.403Z,15.48
2022-12-18T09:21:18.575Z,19.02
2022-12-18T09:23:24.273Z,18.52
2022-12-18T09:25:32.833Z,18.63
2022-12-18T09:27:38.081Z,15.55
2022-12-18T09:29:43.551Z,18.55
2022-12-18T09:31:48.975Z,19.00
2022-12-18T09:33:59.312Z,18.30
2022-12-18T09:36:07.972Z,16.83
2022-12-18T09:38:17.944Z,19.35
2022-12-18T09:40:27.811Z,17.48
2022-12-18T09:42:32.987Z,17.65
2022-12-18T09:44:45.899Z,16.15
2022-12-18T09:47:02.267Z,17.30
2022-12-18T09:49:18.352Z,17.27
2022-12-18T09:51:30.154Z,19.67
2022-12-18T09:53:42.323Z,17.20
2022-12-18T09:55:50.417Z,18.70
2022-12-18T09:58:05.009Z,19.33
2022-12-18T10:00:23.618Z,19.88
2022-12-18T10:02:33.913Z,20.10
2022-12-18T10:04:41.667Z,19.70
2022-12-18T10:06:55.732Z,30.35
2022-12-18T10:09:13.046Z,30.17
2022-12-18T10:11:40.988Z,26.80
2022-12-18T10:13:53.194Z,23.65
2022-12-18T10:16:13.389Z,27.20
2022-12-18T10:18:33.798Z,19.92
2022-12-18T10:20:47.805Z,18.77
2022-12-18T10:23:03.264Z,18.23
2022-12-18T10:25:22.357Z,18.05
2022-12-18T10:27:29.930Z,18.48
2022-12-18T10:29:36.015Z,19.30
2022-12-18T10:31:41.130Z,21.13
2022-12-18T10:33:46.197Z,18.42
2022-12-18T10:35:56.241Z,20.17
2022-12-18T10:38:10.620Z,18.30
2022-12-18T10:40:22.627Z,18.90
2022-12-18T10:42:28.194Z,18.80
2022-12-18T10:44:33.288Z,17.95
2022-12-18T10:46:40.434Z,19.27
2022-12-18T10:48:58.024Z,18.73
2022-12-18T10:51:12.572Z,20.05
2022-12-18T10:53:25.302Z,18.90
2022-12-18T10:55:36.773Z,18.65
2022-12-18T10:57:44.046Z,18.83
2022-12-18T10:59:58.344Z,19.20
2022-12-18T11:02:03.794Z,17.90
2022-12-18T11:04:13.087Z,18.42
2022-12-18T11:06:26.529Z,19.13
2022-12-18T11:08:31.462Z,18.67
2022-12-18T11:10:41.927Z,19.23
2022-12-18T11:12:46.981Z,19.50
2022-12-18T11:14:54.648Z,17.67
2022-12-18T11:19:37.147Z,16.88
2022-12-18T11:21:47.006Z,18.63
2022-12-18T11:23:55.936Z,18.77
2022-12-18T11:26:04.865Z,19.00
2022-12-18T11:28:30.650Z,17.70
2022-12-18T11:30:41.371Z,18.90
2022-12-18T11:32:49.095Z,18.98
2022-12-18T11:35:00.914Z,18.38
2022-12-18T11:37:08.821Z,19.17
2022-12-18T11:39:21.360Z,18.80
2022-12-18T11:41:46.180Z,19.17
2022-12-18T11:43:59.408Z,20.52
2022-12-18T11:46:16.139Z,21.60
2022-12-18T11:48:30.882Z,19.25
2022-12-18T11:50:50.032Z,19.00
2022-12-18T11:53:02.859Z,18.33
2022-12-18T11:55:18.241Z,19.88
2022-12-18T11:57:38.699Z,20.60
2022-12-18T11:59:53.812Z,21.05
2022-12-18T12:02:07.669Z,19.30
2022-12-18T12:04:41.635Z,20.33
2022-12-18T12:07:03.320Z,20.08
2022-12-18T12:09:24.244Z,20.58
2022-12-18T12:11:41.105Z,19.40
2022-12-18T12:13:59.303Z,20.35
2022-12-18T12:16:21.638Z,21.58
2022-12-18T12:18:41.451Z,21.55
2022-12-18T12:20:55.758Z,24.65
2022-12-18T12:23:17.688Z,22.05
2022-12-18T12:25:38.964Z,20.02
2022-12-18T12:27:54.745Z,22.08
2022-12-18T12:30:10.542Z,21.42
2022-12-18T12:32:30.892Z,22.88
2022-12-18T12:34:47.436Z,20.65
2022-12-18T12:37:16.354Z,21.83
2022-12-18T12:39:29.254Z,20.85
2022-12-18T12:41:52.070Z,21.40
2022-12-18T12:44:02.533Z,21.98
2022-12-18T12:46:10.479Z,24.63
2022-12-18T12:48:24.446Z,21.98
2022-12-18T12:50:30.732Z,22.63
2022-12-18T12:52:43.626Z,21.75
2022-12-18T12:54:50.253Z,23.00
2022-12-18T12:57:03.325Z,22.93
2022-12-18T12:59:19.783Z,20.65
2022-12-18T13:01:36.181Z,20.45
2022-12-18T13:03:56.669Z,20.52
2022-12-18T13:06:09.700Z,22.92
2022-12-18T13:08:27.458Z,23.27
2022-12-18T13:10:39.626Z,22.73
2022-12-18T13:12:57.334Z,23.40
2022-12-18T13:15:23.412Z,22.58
2022-12-18T13:17:33.748Z,22.45
2022-12-18T13:19:39.548Z,23.30
2022-12-18T13:21:45.298Z,22.80
2022-12-18T13:23:51.120Z,23.48
2022-12-18T13:25:57.816Z,23.77
2022-12-18T13:28:17.296Z,23.23
2022-12-18T13:30:49.696Z,22.55
2022-12-18T13:36:34.666Z,23.77
2022-12-18T13:38:42.405Z,22.35
2022-12-18T13:41:03.318Z,22.50
2022-12-18T13:43:24.771Z,28.67
2022-12-18T13:45:49.102Z,25.98
2022-12-18T13:47:54.820Z,22.17
2022-12-18T13:50:03.360Z,25.23
2022-12-18T13:52:24.159Z,27.55
2022-12-18T13:54:36.786Z,24.00
2022-12-18T13:56:49.252Z,25.25
2022-12-18T13:59:24.713Z,23.08
2022-12-18T14:01:30.392Z,25.10
2022-12-18T14:03:35.536Z,25.10
2022-12-18T14:05:44.731Z,25.17
2022-12-18T14:07:50.395Z,24.42
2022-12-18T14:12:42.992Z,25.27
2022-12-18T14:14:53.514Z,25.80
2022-12-18T14:17:00.717Z,25.15
2022-12-18T14:19:14.931Z,25.52
2022-12-18T14:21:33.462Z,24.73
2022-12-18T14:25:50.694Z,25.50
2022-12-18T14:28:06.060Z,25.48
2022-12-18T14:30:31.632Z,25.40
2022-12-18T14:32:36.718Z,25.83
2022-12-18T14:34:42.225Z,26.55
2022-12-18T14:36:57.183Z,25.33
2022-12-18T14:39:03.128Z,25.98
2022-12-18T14:41:13.880Z,33.08
2022-12-18T14:43:18.928Z,35.90
2022-12-18T14:45:43.390Z,26.88
2022-12-18T14:47:49.208Z,26.38
2022-12-18T14:49:54.868Z,24.23
2022-12-18T14:52:05.267Z,26.58
2022-12-18T14:54:20.614Z,27.48
2022-12-18T14:56:28.351Z,26.80
2022-12-18T14:58:33.512Z,26.95
2022-12-18T15:00:45.992Z,26.98
2022-12-18T15:02:56.259Z,26.55
2022-12-18T15:05:11.292Z,27.15
2022-12-18T15:07:23.211Z,26.05
2022-12-18T15:09:30.012Z,26.70
2022-12-18T15:11:50.068Z,27.27
2022-12-18T15:13:55.071Z,26.85
2022-12-18T15:16:02.290Z,26.45
2022-12-18T15:18:16.618Z,25.17
2022-12-18T15:20:22.176Z,26.20
2022-12-18T15:22:32.725Z,31.67
2022-12-18T15:24:37.801Z,34.58
2022-12-18T15:26:42.804Z,30.92
2022-12-18T15:28:50.818Z,31.38
2022-12-18T15:31:09.761Z,30.45
2022-12-18T15:33:30.375Z,27.80
2022-12-18T15:35:35.503Z,27.75
2022-12-18T15:37:43.746Z,28.05
2022-12-18T15:39:48.706Z,28.58
2022-12-18T15:42:06.632Z,28.73
2022-12-18T15:44:27.297Z,28.15
2022-12-18T15:46:32.551Z,32.85
2022-12-18T15:48:42.722Z,57.67
2022-12-18T15:50:48.393Z,65.45
2022-12-18T15:52:58.541Z,35.65
2022-12-18T15:55:16.086Z,31.77
2022-12-18T15:57:27.602Z,30.35
2022-12-18T15:59:32.655Z,29.48
2022-12-18T16:01:42.307Z,35.10
2022-12-18T16:03:48.203Z,40.42
2022-12-18T16:05:53.823Z,29.98
2022-12-18T16:08:02.073Z,27.63
2022-12-18T16:10:07.980Z,29.95
2022-12-18T16:12:21.004Z,27.50
2022-12-18T16:14:28.893Z,28.23
2022-12-18T16:18:38.786Z,30.30
2022-12-18T16:20:44.284Z,33.75
2022-12-18T16:22:51.270Z,36.30
2022-12-18T16:25:00.928Z,42.50
2022-12-18T16:27:06.584Z,35.10
2022-12-18T16:29:11.766Z,37.97
2022-12-18T16:31:17.567Z,24.50
2022-12-18T16:33:22.960Z,23.77
2022-12-18T16:35:29.619Z,26.88
2022-12-18T16:37:34.618Z,31.40
2022-12-18T16:39:42.683Z,32.53
2022-12-18T16:41:50.825Z,25.45
2022-12-18T16:43:55.810Z,26.83
2022-12-18T16:46:03.013Z,25.90
2022-12-18T16:48:08.908Z,28.98
2022-12-18T16:50:15.393Z,28.88
2022-12-18T16:52:20.683Z,27.17
2022-12-18T16:54:26.238Z,25.50
2022-12-18T16:56:31.448Z,26.23
2022-12-18T16:58:42.122Z,28.20
2022-12-18T17:00:48.032Z,25.05
2022-12-18T17:02:55.905Z,22.50
2022-12-18T17:05:01.946Z,20.92
2022-12-18T17:07:06.968Z,18.73
2022-12-18T17:09:16.820Z,15.68
2022-12-18T17:11:22.610Z,14.63
2022-12-18T17:13:30.310Z,14.77
2022-12-18T17:15:40.757Z,14.57
2022-12-18T17:17:45.773Z,13.82
2022-12-18T17:19:50.760Z,11.35
2022-12-18T17:21:56.109Z,14.57
2022-12-18T17:24:03.424Z,15.45
2022-12-18T17:26:10.904Z,12.88
2022-12-18T17:28:16.496Z,14.43
2022-12-18T17:30:21.787Z,15.18
2022-12-18T17:32:29.792Z,15.13
2022-12-18T17:34:34.807Z,10.40
2022-12-18T17:36:41.380Z,13.90
2022-12-18T17:38:52.609Z,15.52
2022-12-18T17:40:57.811Z,14.00
2022-12-18T17:43:02.799Z,14.85
2022-12-18T17:45:09.812Z,13.38
2022-12-18T17:47:15.030Z,14.35
2022-12-18T17:49:22.617Z,12.82
2022-12-18T17:51:28.278Z,13.43
2022-12-18T17:53:33.958Z,14.32
2022-12-18T17:55:39.127Z,14.63
2022-12-18T17:57:44.104Z,14.82
2022-12-18T17:59:49.115Z,15.95
2022-12-18T18:01:54.320Z,15.13
2022-12-18T18:04:02.078Z,14.90
2022-12-18T18:06:10.916Z,15.27
2022-12-18T18:08:16.221Z,14.57
2022-12-18T18:10:21.387Z,14.60
2022-12-18T18:12:38.938Z,12.93
2022-12-18T18:14:43.974Z,14.57
2022-12-18T18:16:52.050Z,14.40
2022-12-18T18:21:11.730Z,12.73
2022-12-18T18:23:18.547Z,14.43
2022-12-18T18:25:23.550Z,13.25
2022-12-18T18:27:31.654Z,14.45
2022-12-18T18:29:40.473Z,15.10
2022-12-18T18:31:45.738Z,14.52
2022-12-18T18:33:50.812Z,13.90
2022-12-18T18:35:55.806Z,14.13
2022-12-18T18:38:04.436Z,13.85
2022-12-18T18:40:11.403Z,14.23
2022-12-18T18:42:16.445Z,14.17
2022-12-18T18:44:26.040Z,14.10
2022-12-18T18:46:31.582Z,15.43
2022-12-18T18:48:41.216Z,14.02
2022-12-18T18:50:59.355Z,14.93
2022-12-18T18:53:06.956Z,14.07
2022-12-18T18:55:16.579Z,13.80
2022-12-18T18:57:30.907Z,14.75
2022-12-18T18:59:35.905Z,14.30
2022-12-18T19:01:41.062Z,14.50
2022-12-18T19:03:47.013Z,14.45
2022-12-18T19:05:55.942Z,14.93
2022-12-18T19:08:00.955Z,14.68
2022-12-18T19:10:11.570Z,15.27
2022-12-18T19:12:29.579Z,13.80
2022-12-18T19:16:40.550Z,13.95
2022-12-18T19:18:46.811Z,15.68
2022-12-18T19:21:00.703Z,16.25
2022-12-18T19:23:05.689Z,16.40
2022-12-18T19:25:13.717Z,15.85
2022-12-18T19:27:19.587Z,16.33
2022-12-18T19:29:24.563Z,17.65
2022-12-18T19:31:36.152Z,17.05
2022-12-18T19:33:45.466Z,17.40
2022-12-18T19:35:50.849Z,15.88
2022-12-18T19:37:56.049Z,14.98
2022-12-18T19:40:02.619Z,15.30
2022-12-18T19:42:21.441Z,15.50
2022-12-18T19:44:30.558Z,15.23
2022-12-18T19:46:36.198Z,15.40
2022-12-18T19:48:47.587Z,13.95
2022-12-18T19:50:52.910Z,15.05
2022-12-18T19:52:58.523Z,14.40
2022-12-18T19:55:03.617Z,14.63
2022-12-18T19:57:11.483Z,15.82
2022-12-18T19:59:19.139Z,16.50
2022-12-18T20:01:26.900Z,14.48
2022-12-18T20:05:50.465Z,14.90
2022-12-18T20:07:55.604Z,14.70
2022-12-18T20:10:08.452Z,14.60
2022-12-18T20:12:14.367Z,14.75
2022-12-18T20:14:22.966Z,14.88
2022-12-18T20:16:28.858Z,15.15
2022-12-18T20:18:34.731Z,15.23
2022-12-18T20:20:40.193Z,14.95
2022-12-18T20:22:45.561Z,16.20
2022-12-18T20:24:50.918Z,16.60
2022-12-18T20:26:56.363Z,14.77
2022-12-18T20:29:01.671Z,14.80
2022-12-18T20:31:10.517Z,15.30
2022-12-18T20:33:19.548Z,14.60
2022-12-18T20:35:28.579Z,15.13
2022-12-18T20:37:34.325Z,14.65
2022-12-18T20:39:42.561Z,15.50
2022-12-18T20:41:49.901Z,15.07
2022-12-18T20:43:55.139Z,15.75
2022-12-18T20:46:05.526Z,14.40
2022-12-18T20:48:13.283Z,14.43
2022-12-18T20:50:18.276Z,14.80
2022-12-18T20:52:23.622Z,15.05
2022-12-18T20:54:29.967Z,14.27
2022-12-18T20:56:35.304Z,15.88
2022-12-18T20:58:41.477Z,13.43
2022-12-18T21:00:46.518Z,12.10
2022-12-18T21:02:51.975Z,13.35
2022-12-18T21:04:59.929Z,14.02
2022-12-18T21:07:04.895Z,14.57
2022-12-18T21:09:10.241Z,14.48
2022-12-18T21:11:30.700Z,15.30
2022-12-18T21:13:35.801Z,15.48
2022-12-18T21:15:40.839Z,14.25
2022-12-18T21:17:46.224Z,15.98
2022-12-18T21:19:51.224Z,14.10
2022-12-18T21:22:00.854Z,14.38
2022-12-18T21:24:06.543Z,15.90
2022-12-18T21:26:22.706Z,14.02
2022-12-18T21:28:28.370Z,17.50
2022-12-18T21:30:33.487Z,17.58
2022-12-18T21:32:38.818Z,16.60
2022-12-18T21:34:47.966Z,15.27
2022-12-18T21:36:53.610Z,15.13
2022-12-18T21:39:02.456Z,15.27
2022-12-18T21:41:10.291Z,14.55
2022-12-18T21:43:28.362Z,14.55
2022-12-18T21:47:38.591Z,14.32
2022-12-18T21:49:43.963Z,14.43
2022-12-18T21:51:50.613Z,14.50
2022-12-18T21:53:56.121Z,13.75
2022-12-18T21:56:04.369Z,14.23
2022-12-18T21:58:09.360Z,14.25
2022-12-18T22:00:19.094Z,15.45
2022-12-18T22:02:26.804Z,14.30
2022-12-18T22:04:32.158Z,13.85
2022-12-18T22:06:38.315Z,15.20
2022-12-18T22:08:43.829Z,14.70
2022-12-18T22:10:49.486Z,15.63
2022-12-18T22:12:57.089Z,15.18
2022-12-18T22:15:02.087Z,15.57
2022-12-18T22:17:07.139Z,15.55
2022-12-18T22:19:14.170Z,16.00
2022-12-18T22:21:29.562Z,15.73
2022-12-18T22:23:35.486Z,15.00
2022-12-18T22:25:40.663Z,16.23
2022-12-18T22:28:06.300Z,16.00
2022-12-18T22:30:14.814Z,15.18
2022-12-18T22:32:28.973Z,16.40
2022-12-18T22:34:38.577Z,16.08
2022-12-18T22:36:47.398Z,16.23
2022-12-18T22:38:52.413Z,16.85
2022-12-18T22:40:59.273Z,17.27
2022-12-18T22:43:04.420Z,17.00
2022-12-18T22:45:13.823Z,16.30
2022-12-18T22:47:18.894Z,17.13
2022-12-18T22:49:26.606Z,15.50
2022-12-18T22:51:31.578Z,17.63
2022-12-18T22:53:36.708Z,12.75
2022-12-18T22:55:41.720Z,16.52
2022-12-18T22:57:48.618Z,16.13
2022-12-18T22:59:56.517Z,16.40
2022-12-18T23:02:04.340Z,16.38
2022-12-18T23:06:14.631Z,14.77
2022-12-18T23:08:19.633Z,15.75
2022-12-18T23:10:25.047Z,17.10
2022-12-18T23:12:30.443Z,16.00
2022-12-18T23:14:35.967Z,16.02
2022-12-18T23:16:41.052Z,16.25
2022-12-18T23:18:50.967Z,16.20
2022-12-18T23:20:56.359Z,18.80
2022-12-18T23:23:02.898Z,17.15
2022-12-18T23:25:09.666Z,17.80
2022-12-18T23:27:14.924Z,17.35
2022-12-18T23:29:19.971Z,18.20
2022-12-18T23:31:30.754Z,17.15
2022-12-18T23:33:36.304Z,18.58
2022-12-18T23:35:44.197Z,16.40
2022-12-18T23:37:58.765Z,17.27
2022-12-18T23:40:05.228Z,16.38
2022-12-18T23:42:10.847Z,17.52
2022-12-18T23:44:19.764Z,16.17
2022-12-18T23:46:27.850Z,16.55
2022-12-18T23:48:34.808Z,16.77
2022-12-18T23:50:40.497Z,16.00
2022-12-18T23:52:48.103Z,17.00
2022-12-18T23:54:53.317Z,16.17
2022-12-18T23:56:58.331Z,16.58
2022-12-18T23:59:03.398Z,16.10
